Terminal Aerodrome Forecast
Issued by NWS Jackson, KY

Home | Current Version | Previous Version | Text Only | Print | Product List | Glossary On
Versions: 1 2 3 4 5 6 7 8 9 10 11 12 13 14 15 16 17 18 19 20 21 22 23
039
FTUS43 KJKL 251120
TAFJKL
TAF
KJKL 251120Z 2512/2612 22006KT 3SM -SHRA OVC009
     FM251900 25011G15KT 3SM SHRA OVC008
     FM252300 26010KT P6SM VCSH OVC015
     FM260400 26005KT P6SM BKN020=

USA.gov is the U.S. government's official web portal to all federal, state and local government web resources and services.